Weather at Delozier Airport

Public forecast

Using degrees Fahrenheit for public forecast. Weather courtesy of forecast.io.

Closest aviation weather report (METAR) to Delozier Airport

Closest report is Claremore Regional Airport, 16.2 nm (29.9 km) S. Retrieved 2021/01/22 03:35 UTC (0 seconds ago):

KGCM 220335Z AUTO 00000KT 10SM CLR 03/02 A2999 RMK AO2

Closest aviation forecast (TAF) to Delozier Airport

Closest forecast is Bartlesville Municipal Airport, 30.5 nm (56.4 km) WNW. Retrieved 2021-01-22 00:36 UTC (2 hours ago):

TAF KBVO 212334Z 2200/2224 02004KT P6SM SCT150 BKN250 FM220600 04010KT P6SM BKN120 FM221500 05011G18KT P6SM SCT150